sensor_id;sensor_type;location;lat;lon;timestamp;pressure;altitude;pressure_sealevel;temperature;humidity
47985;BME280;33753;52.912;-7.342;2023-04-10T00:00:35;99421.88;;;7.39;100.00
47985;BME280;33753;52.912;-7.342;2023-04-10T00:03:05;99409.06;;;7.41;100.00
47985;BME280;33753;52.912;-7.342;2023-04-10T00:05:33;99405.34;;;7.42;100.00
47985;BME280;33753;52.912;-7.342;2023-04-10T00:08:02;99404.41;;;7.35;100.00
47985;BME280;33753;52.912;-7.342;2023-04-10T00:10:30;99408.09;;;7.34;100.00
47985;BME280;33753;52.912;-7.342;2023-04-10T00:13:00;99406.13;;;7.28;100.00
47985;BME280;33753;52.912;-7.342;2023-04-10T00:15:30;99410.50;;;7.29;100.00
47985;BME280;33753;52.912;-7.342;2023-04-10T00:17:58;99401.28;;;7.23;100.00
47985;BME280;33753;52.912;-7.342;2023-04-10T00:20:26;99404.13;;;7.22;100.00
47985;BME280;33753;52.912;-7.342;2023-04-10T00:22:55;99401.28;;;7.23;100.00
47985;BME280;33753;52.912;-7.342;2023-04-10T00:25:23;99399.59;;;7.22;100.00
47985;BME280;33753;52.912;-7.342;2023-04-10T00:27:52;99396.44;;;7.19;100.00
47985;BME280;33753;52.912;-7.342;2023-04-10T00:30:22;99397.78;;;7.15;100.00
47985;BME280;33753;52.912;-7.342;2023-04-10T00:32:50;99402.13;;;7.16;100.00
47985;BME280;33753;52.912;-7.342;2023-04-10T00:35:18;99396.75;;;7.16;100.00
47985;BME280;33753;52.912;-7.342;2023-04-10T00:37:47;99395.94;;;7.15;100.00
47985;BME280;33753;52.912;-7.342;2023-04-10T00:40:15;99395.75;;;7.17;100.00
47985;BME280;33753;52.912;-7.342;2023-04-10T00:42:44;99388.69;;;7.16;100.00
47985;BME280;33753;52.912;-7.342;2023-04-10T00:45:12;99385.00;;;7.17;100.00
47985;BME280;33753;52.912;-7.342;2023-04-10T00:47:42;99384.47;;;7.21;100.00
47985;BME280;33753;52.912;-7.342;2023-04-10T00:50:10;99393.03;;;7.25;100.00
47985;BME280;33753;52.912;-7.342;2023-04-10T00:52:38;99389.97;;;7.28;100.00
47985;BME280;33753;52.912;-7.342;2023-04-10T00:55:07;99391.66;;;7.29;100.00
47985;BME280;33753;52.912;-7.342;2023-04-10T00:57:35;99385.75;;;7.34;100.00
47985;BME280;33753;52.912;-7.342;2023-04-10T01:00:04;99387.44;;;7.35;100.00
47985;BME280;33753;52.912;-7.342;2023-04-10T01:02:33;99403.03;;;7.39;100.00
47985;BME280;33753;52.912;-7.342;2023-04-10T01:05:03;99394.59;;;7.42;100.00
47985;BME280;33753;52.912;-7.342;2023-04-10T01:07:34;99399.97;;;7.42;100.00
47985;BME280;33753;52.912;-7.342;2023-04-10T01:10:08;99396.28;;;7.43;100.00
47985;BME280;33753;52.912;-7.342;2023-04-10T01:12:48;99392.22;;;7.48;100.00
47985;BME280;33753;52.912;-7.342;2023-04-10T01:15:19;99386.84;;;7.48;100.00
47985;BME280;33753;52.912;-7.342;2023-04-10T01:17:49;99382.97;;;7.50;100.00
47985;BME280;33753;52.912;-7.342;2023-04-10T01:20:22;99394.56;;;7.51;100.00
47985;BME280;33753;52.912;-7.342;2023-04-10T01:22:59;99393.19;;;7.55;100.00
47985;BME280;33753;52.912;-7.342;2023-04-10T01:25:37;99380.75;;;7.54;100.00
47985;BME280;33753;52.912;-7.342;2023-04-10T01:28:10;99385.41;;;7.60;100.00
47985;BME280;33753;52.912;-7.342;2023-04-10T01:30:45;99381.69;;;7.61;100.00
47985;BME280;33753;52.912;-7.342;2023-04-10T01:33:15;99363.88;;;7.60;100.00
47985;BME280;33753;52.912;-7.342;2023-04-10T01:35:46;99354.41;;;7.64;100.00
47985;BME280;33753;52.912;-7.342;2023-04-10T01:38:16;99351.38;;;7.67;100.00
47985;BME280;33753;52.912;-7.342;2023-04-10T01:40:46;99361.31;;;7.67;100.00
47985;BME280;33753;52.912;-7.342;2023-04-10T01:43:24;99366.13;;;7.71;100.00
47985;BME280;33753;52.912;-7.342;2023-04-10T01:45:54;99366.81;;;7.73;100.00
47985;BME280;33753;52.912;-7.342;2023-04-10T01:48:24;99366.25;;;7.78;100.00
47985;BME280;33753;52.912;-7.342;2023-04-10T01:50:53;99372.16;;;7.82;100.00
47985;BME280;33753;52.912;-7.342;2023-04-10T01:53:22;99371.47;;;7.79;100.00
47985;BME280;33753;52.912;-7.342;2023-04-10T01:55:50;99378.16;;;7.84;100.00
47985;BME280;33753;52.912;-7.342;2023-04-10T01:58:19;99377.81;;;7.87;100.00
47985;BME280;33753;52.912;-7.342;2023-04-10T02:00:47;99373.91;;;7.89;100.00
47985;BME280;33753;52.912;-7.342;2023-04-10T02:03:17;99369.34;;;7.90;100.00
47985;BME280;33753;52.912;-7.342;2023-04-10T02:05:49;99370.22;;;7.90;100.00
47985;BME280;33753;52.912;-7.342;2023-04-10T02:08:21;99376.06;;;7.94;100.00
47985;BME280;33753;52.912;-7.342;2023-04-10T02:10:53;99364.47;;;7.93;100.00
47985;BME280;33753;52.912;-7.342;2023-04-10T02:13:23;99376.06;;;7.94;100.00
47985;BME280;33753;52.912;-7.342;2023-04-10T02:15:53;99360.56;;;7.96;100.00
47985;BME280;33753;52.912;-7.342;2023-04-10T02:18:24;99356.47;;;8.00;100.00
47985;BME280;33753;52.912;-7.342;2023-04-10T02:20:52;99358.16;;;8.01;100.00
47985;BME280;33753;52.912;-7.342;2023-04-10T02:23:21;99355.47;;;8.01;100.00
47985;BME280;33753;52.912;-7.342;2023-04-10T02:25:49;99345.38;;;8.03;100.00
47985;BME280;33753;52.912;-7.342;2023-04-10T02:28:18;99342.00;;;8.01;100.00
47985;BME280;33753;52.912;-7.342;2023-04-10T02:30:46;99346.38;;;8.02;100.00
47985;BME280;33753;52.912;-7.342;2023-04-10T02:33:14;99339.97;;;8.03;100.00
47985;BME280;33753;52.912;-7.342;2023-04-10T02:35:44;99334.28;;;7.98;100.00
47985;BME280;33753;52.912;-7.342;2023-04-10T02:38:12;99329.91;;;7.97;100.00
47985;BME280;33753;52.912;-7.342;2023-04-10T02:40:42;99321.84;;;7.97;100.00
47985;BME280;33753;52.912;-7.342;2023-04-10T02:43:13;99316.56;;;7.89;100.00
47985;BME280;33753;52.912;-7.342;2023-04-10T02:45:41;99314.94;;;7.79;100.00
47985;BME280;33753;52.912;-7.342;2023-04-10T02:48:13;99302.22;;;7.73;100.00
47985;BME280;33753;52.912;-7.342;2023-04-10T02:50:41;99294.50;;;7.70;100.00
47985;BME280;33753;52.912;-7.342;2023-04-10T02:53:14;99308.84;;;7.63;100.00
47985;BME280;33753;52.912;-7.342;2023-04-10T02:55:43;99300.19;;;7.52;100.00
47985;BME280;33753;52.912;-7.342;2023-04-10T02:58:11;99302.47;;;7.40;100.00
47985;BME280;33753;52.912;-7.342;2023-04-10T03:00:40;99308.03;;;7.39;100.00
47985;BME280;33753;52.912;-7.342;2023-04-10T03:03:24;99296.34;;;7.32;100.00
47985;BME280;33753;52.912;-7.342;2023-04-10T03:05:54;99290.81;;;7.25;100.00
47985;BME280;33753;52.912;-7.342;2023-04-10T03:08:29;99285.81;;;7.22;100.00
47985;BME280;33753;52.912;-7.342;2023-04-10T03:10:57;99283.28;;;7.20;100.00
47985;BME280;33753;52.912;-7.342;2023-04-10T03:13:25;99284.84;;;7.15;100.00
47985;BME280;33753;52.912;-7.342;2023-04-10T03:15:54;99283.53;;;7.11;100.00
47985;BME280;33753;52.912;-7.342;2023-04-10T03:18:22;99285.91;;;7.05;100.00
47985;BME280;33753;52.912;-7.342;2023-04-10T03:20:52;99284.94;;;6.98;100.00
47985;BME280;33753;52.912;-7.342;2023-04-10T03:23:21;99273.91;;;6.93;100.00
47985;BME280;33753;52.912;-7.342;2023-04-10T03:25:51;99272.41;;;6.90;100.00
47985;BME280;33753;52.912;-7.342;2023-04-10T03:28:24;99256.13;;;6.84;100.00
47985;BME280;33753;52.912;-7.342;2023-04-10T03:30:53;99256.00;;;6.77;100.00
47985;BME280;33753;52.912;-7.342;2023-04-10T03:33:22;99257.25;;;6.66;100.00
47985;BME280;33753;52.912;-7.342;2023-04-10T03:35:50;99255.22;;;6.60;100.00
47985;BME280;33753;52.912;-7.342;2023-04-10T03:38:19;99250.22;;;6.57;100.00
47985;BME280;33753;52.912;-7.342;2023-04-10T03:40:47;99258.44;;;6.55;100.00
47985;BME280;33753;52.912;-7.342;2023-04-10T03:43:19;99260.00;;;6.50;100.00
47985;BME280;33753;52.912;-7.342;2023-04-10T03:45:48;99247.59;;;6.49;100.00
47985;BME280;33753;52.912;-7.342;2023-04-10T03:48:16;99250.59;;;6.46;100.00
47985;BME280;33753;52.912;-7.342;2023-04-10T03:50:45;99253.66;;;6.43;100.00
47985;BME280;33753;52.912;-7.342;2023-04-10T03:53:14;99251.13;;;6.41;100.00
47985;BME280;33753;52.912;-7.342;2023-04-10T03:55:43;99257.00;;;6.45;100.00
47985;BME280;33753;52.912;-7.342;2023-04-10T03:58:12;99248.59;;;6.48;100.00
47985;BME280;33753;52.912;-7.342;2023-04-10T04:00:41;99244.22;;;6.47;100.00
47985;BME280;33753;52.912;-7.342;2023-04-10T04:03:18;99244.22;;;6.47;100.00
47985;BME280;33753;52.912;-7.342;2023-04-10T04:05:59;99246.75;;;6.48;100.00
47985;BME280;33753;52.912;-7.342;2023-04-10T04:08:48;99241.88;;;6.52;100.00
47985;BME280;33753;52.912;-7.342;2023-04-10T04:11:33;99241.88;;;6.52;100.00
47985;BME280;33753;52.912;-7.342;2023-04-10T04:14:30;99239.00;;;6.53;100.00
47985;BME280;33753;52.912;-7.342;2023-04-10T04:17:20;99237.16;;;6.54;100.00
47985;BME280;33753;52.912;-7.342;2023-04-10T04:20:08;99248.25;;;6.51;100.00
47985;BME280;33753;52.912;-7.342;2023-04-10T04:22:42;99252.97;;;6.49;100.00
47985;BME280;33753;52.912;-7.342;2023-04-10T04:25:36;99249.25;;;6.50;100.00
47985;BME280;33753;52.912;-7.342;2023-04-10T04:28:38;99247.59;;;6.49;100.00
47985;BME280;33753;52.912;-7.342;2023-04-10T04:31:33;99248.78;;;6.46;100.00
47985;BME280;33753;52.912;-7.342;2023-04-10T04:34:18;99248.59;;;6.48;100.00
47985;BME280;33753;52.912;-7.342;2023-04-10T04:37:11;99242.53;;;6.46;100.00
47985;BME280;33753;52.912;-7.342;2023-04-10T04:39:54;99246.56;;;6.50;100.00
47985;BME280;33753;52.912;-7.342;2023-04-10T04:42:22;99246.25;;;6.45;100.00
47985;BME280;33753;52.912;-7.342;2023-04-10T04:45:10;99240.53;;;6.48;100.00
47985;BME280;33753;52.912;-7.342;2023-04-10T04:47:42;99239.22;;;6.44;100.00
47985;BME280;33753;52.912;-7.342;2023-04-10T04:50:36;99238.22;;;6.45;100.00
47985;BME280;33753;52.912;-7.342;2023-04-10T04:53:21;99230.16;;;6.45;100.00
47985;BME280;33753;52.912;-7.342;2023-04-10T04:56:21;99223.91;;;6.44;100.00
47985;BME280;33753;52.912;-7.342;2023-04-10T04:59:04;99227.28;;;6.46;100.00
47985;BME280;33753;52.912;-7.342;2023-04-10T05:01:47;99232.94;;;6.51;100.00
47985;BME280;33753;52.912;-7.342;2023-04-10T05:04:39;99236.13;;;6.55;100.00
47985;BME280;33753;52.912;-7.342;2023-04-10T05:07:22;99237.47;;;6.59;100.00
47985;BME280;33753;52.912;-7.342;2023-04-10T05:10:00;99236.28;;;6.62;100.00
47985;BME280;33753;52.912;-7.342;2023-04-10T05:12:45;99236.75;;;6.65;100.00
47985;BME280;33753;52.912;-7.342;2023-04-10T05:15:21;99239.25;;;6.67;100.00
47985;BME280;33753;52.912;-7.342;2023-04-10T05:18:10;99232.53;;;6.71;100.00
47985;BME280;33753;52.912;-7.342;2023-04-10T05:20:58;99237.53;;;6.74;100.00
47985;BME280;33753;52.912;-7.342;2023-04-10T05:23:41;99237.19;;;6.77;100.00
47985;BME280;33753;52.912;-7.342;2023-04-10T05:26:27;99246.56;;;6.81;100.00
47985;BME280;33753;52.912;-7.342;2023-04-10T05:29:19;99239.34;;;6.82;100.00
47985;BME280;33753;52.912;-7.342;2023-04-10T05:32:25;99238.50;;;6.81;100.00
47985;BME280;33753;52.912;-7.342;2023-04-10T05:35:12;99252.44;;;6.85;100.00
47985;BME280;33753;52.912;-7.342;2023-04-10T05:37:51;99250.22;;;6.88;100.00
47985;BME280;33753;52.912;-7.342;2023-04-10T05:40:26;99258.28;;;6.88;100.00
47985;BME280;33753;52.912;-7.342;2023-04-10T05:43:07;99260.78;;;6.90;100.00
47985;BME280;33753;52.912;-7.342;2023-04-10T05:45:57;99262.09;;;6.94;100.00
47985;BME280;33753;52.912;-7.342;2023-04-10T05:48:44;99267.47;;;6.94;100.00
47985;BME280;33753;52.912;-7.342;2023-04-10T05:51:35;99265.66;;;6.95;100.00
47985;BME280;33753;52.912;-7.342;2023-04-10T05:54:24;99271.84;;;6.95;100.00
47985;BME280;33753;52.912;-7.342;2023-04-10T05:57:08;99275.06;;;6.90;100.00
47985;BME280;33753;52.912;-7.342;2023-04-10T06:00:02;99277.59;;;6.92;100.00
47985;BME280;33753;52.912;-7.342;2023-04-10T06:02:41;99279.59;;;6.90;100.00
47985;BME280;33753;52.912;-7.342;2023-04-10T06:05:18;99280.28;;;6.92;100.00
47985;BME280;33753;52.912;-7.342;2023-04-10T06:07:47;99272.56;;;6.89;100.00
47985;BME280;33753;52.912;-7.342;2023-04-10T06:10:15;99278.41;;;6.92;100.00
47985;BME280;33753;52.912;-7.342;2023-04-10T06:12:45;99277.78;;;6.90;100.00
47985;BME280;33753;52.912;-7.342;2023-04-10T06:15:13;99284.78;;;6.91;100.00
47985;BME280;33753;52.912;-7.342;2023-04-10T06:17:42;99271.91;;;6.87;100.00
47985;BME280;33753;52.912;-7.342;2023-04-10T06:20:10;99273.56;;;6.88;100.00
47985;BME280;33753;52.912;-7.342;2023-04-10T06:22:39;99264.84;;;6.86;100.00
47985;BME280;33753;52.912;-7.342;2023-04-10T06:25:07;99257.31;;;6.81;100.00
47985;BME280;33753;52.912;-7.342;2023-04-10T06:27:35;99253.78;;;6.81;100.00
47985;BME280;33753;52.912;-7.342;2023-04-10T06:30:09;99261.69;;;6.82;100.00
47985;BME280;33753;52.912;-7.342;2023-04-10T06:32:38;99261.03;;;6.80;100.00
47985;BME280;33753;52.912;-7.342;2023-04-10T06:35:07;99248.88;;;6.84;100.00
47985;BME280;33753;52.912;-7.342;2023-04-10T06:37:36;99243.22;;;6.79;100.00
47985;BME280;33753;52.912;-7.342;2023-04-10T06:40:05;99227.56;;;6.83;100.00
47985;BME280;33753;52.912;-7.342;2023-04-10T06:42:33;99228.59;;;6.82;100.00
47985;BME280;33753;52.912;-7.342;2023-04-10T06:45:10;99233.31;;;6.80;100.00
47985;BME280;33753;52.912;-7.342;2023-04-10T06:47:38;99228.28;;;6.77;100.00
47985;BME280;33753;52.912;-7.342;2023-04-10T06:50:07;99251.47;;;6.78;100.00
47985;BME280;33753;52.912;-7.342;2023-04-10T06:52:35;99255.66;;;6.80;100.00
47985;BME280;33753;52.912;-7.342;2023-04-10T06:55:04;99255.31;;;6.83;100.00
47985;BME280;33753;52.912;-7.342;2023-04-10T06:57:32;99250.75;;;6.84;100.00
47985;BME280;33753;52.912;-7.342;2023-04-10T07:00:01;99255.78;;;6.87;100.00
47985;BME280;33753;52.912;-7.342;2023-04-10T07:02:30;99248.41;;;6.81;100.00
47985;BME280;33753;52.912;-7.342;2023-04-10T07:04:59;99238.53;;;6.73;100.00
47985;BME280;33753;52.912;-7.342;2023-04-10T07:07:27;99237.72;;;6.72;100.00
47985;BME280;33753;52.912;-7.342;2023-04-10T07:09:55;99242.72;;;6.75;100.00
47985;BME280;33753;52.912;-7.342;2023-04-10T07:12:24;99243.25;;;6.71;100.00
47985;BME280;33753;52.912;-7.342;2023-04-10T07:14:53;99237.09;;;6.62;100.00
47985;BME280;33753;52.912;-7.342;2023-04-10T07:17:21;99243.09;;;6.72;100.00
47985;BME280;33753;52.912;-7.342;2023-04-10T07:19:50;99246.78;;;6.71;100.00
47985;BME280;33753;52.912;-7.342;2023-04-10T07:22:19;99247.47;;;6.73;100.00
47985;BME280;33753;52.912;-7.342;2023-04-10T07:24:47;99255.16;;;6.77;100.00
47985;BME280;33753;52.912;-7.342;2023-04-10T07:27:15;99239.88;;;6.77;100.00
47985;BME280;33753;52.912;-7.342;2023-04-10T07:29:43;99239.03;;;6.77;100.00
47985;BME280;33753;52.912;-7.342;2023-04-10T07:32:12;99239.03;;;6.77;100.00
47985;BME280;33753;52.912;-7.342;2023-04-10T07:34:40;99240.72;;;6.78;100.00
47985;BME280;33753;52.912;-7.342;2023-04-10T07:37:10;99246.09;;;6.78;100.00
47985;BME280;33753;52.912;-7.342;2023-04-10T07:39:38;99239.00;;;6.85;100.00
47985;BME280;33753;52.912;-7.342;2023-04-10T07:42:06;99237.97;;;6.86;100.00
47985;BME280;33753;52.912;-7.342;2023-04-10T07:44:35;99239.63;;;6.87;100.00
47985;BME280;33753;52.912;-7.342;2023-04-10T07:47:03;99247.34;;;6.90;100.00
47985;BME280;33753;52.912;-7.342;2023-04-10T07:49:32;99256.38;;;6.97;100.00
47985;BME280;33753;52.912;-7.342;2023-04-10T07:52:00;99254.78;;;7.11;100.00
47985;BME280;33753;52.912;-7.342;2023-04-10T07:54:31;99244.50;;;7.15;100.00
47985;BME280;33753;52.912;-7.342;2023-04-10T07:57:00;99251.97;;;7.28;100.00
47985;BME280;33753;52.912;-7.342;2023-04-10T07:59:28;99249.88;;;7.76;100.00
47985;BME280;33753;52.912;-7.342;2023-04-10T08:01:56;99247.97;;;8.15;100.00
47985;BME280;33753;52.912;-7.342;2023-04-10T08:04:25;99255.56;;;8.92;100.00
47985;BME280;33753;52.912;-7.342;2023-04-10T08:06:53;99242.06;;;9.57;100.00
47985;BME280;33753;52.912;-7.342;2023-04-10T08:09:21;99240.72;;;10.03;100.00
47985;BME280;33753;52.912;-7.342;2023-04-10T08:11:51;99249.22;;;10.00;100.00
47985;BME280;33753;52.912;-7.342;2023-04-10T08:14:19;99236.22;;;10.10;100.00
47985;BME280;33753;52.912;-7.342;2023-04-10T08:16:47;99233.44;;;10.32;100.00
47985;BME280;33753;52.912;-7.342;2023-04-10T08:19:15;99226.84;;;10.06;100.00
47985;BME280;33753;52.912;-7.342;2023-04-10T08:21:44;99211.88;;;10.03;100.00
47985;BME280;33753;52.912;-7.342;2023-04-10T08:24:12;99197.91;;;10.00;100.00
47985;BME280;33753;52.912;-7.342;2023-04-10T08:26:40;99195.81;;;10.30;100.00
47985;BME280;33753;52.912;-7.342;2023-04-10T08:29:09;99202.72;;;10.40;100.00
47985;BME280;33753;52.912;-7.342;2023-04-10T08:31:37;99200.50;;;10.21;100.00
47985;BME280;33753;52.912;-7.342;2023-04-10T08:34:06;99193.69;;;10.26;100.00
47985;BME280;33753;52.912;-7.342;2023-04-10T08:36:34;99196.72;;;10.09;100.00
47985;BME280;33753;52.912;-7.342;2023-04-10T08:39:02;99188.16;;;9.99;100.00
47985;BME280;33753;52.912;-7.342;2023-04-10T08:41:30;99188.38;;;10.04;100.00
47985;BME280;33753;52.912;-7.342;2023-04-10T08:43:58;99178.84;;;10.08;100.00
47985;BME280;33753;52.912;-7.342;2023-04-10T08:46:28;99178.78;;;9.95;100.00
47985;BME280;33753;52.912;-7.342;2023-04-10T08:49:00;99173.72;;;9.85;100.00
47985;BME280;33753;52.912;-7.342;2023-04-10T08:51:30;99161.84;;;9.79;100.00
47985;BME280;33753;52.912;-7.342;2023-04-10T08:54:01;99161.69;;;9.88;100.00
47985;BME280;33753;52.912;-7.342;2023-04-10T08:56:32;99159.09;;;9.73;100.00
47985;BME280;33753;52.912;-7.342;2023-04-10T08:59:01;99145.81;;;9.71;100.00
47985;BME280;33753;52.912;-7.342;2023-04-10T09:01:31;99157.56;;;9.92;100.00
47985;BME280;33753;52.912;-7.342;2023-04-10T09:04:00;99163.00;;;10.40;100.00
47985;BME280;33753;52.912;-7.342;2023-04-10T09:06:29;99185.22;;;11.17;100.00
47985;BME280;33753;52.912;-7.342;2023-04-10T09:08:57;99194.09;;;12.18;100.00
47985;BME280;33753;52.912;-7.342;2023-04-10T09:14:17;99191.09;;;13.17;100.00
47985;BME280;33753;52.912;-7.342;2023-04-10T09:16:49;99189.59;;;13.21;100.00
47985;BME280;33753;52.912;-7.342;2023-04-10T09:19:26;99182.59;;;13.39;100.00
47985;BME280;33753;52.912;-7.342;2023-04-10T09:21:56;99179.31;;;13.80;100.00
47985;BME280;33753;52.912;-7.342;2023-04-10T09:24:24;99163.38;;;13.84;100.00
47985;BME280;33753;52.912;-7.342;2023-04-10T09:26:53;99161.34;;;14.16;100.00
47985;BME280;33753;52.912;-7.342;2023-04-10T09:29:21;99162.34;;;14.22;100.00
47985;BME280;33753;52.912;-7.342;2023-04-10T09:31:51;99149.59;;;14.53;100.00
47985;BME280;33753;52.912;-7.342;2023-04-10T09:34:19;99143.09;;;15.15;100.00
47985;BME280;33753;52.912;-7.342;2023-04-10T09:36:52;99131.50;;;15.79;100.00
47985;BME280;33753;52.912;-7.342;2023-04-10T09:39:20;99107.69;;;16.27;100.00
47985;BME280;33753;52.912;-7.342;2023-04-10T09:41:49;99101.88;;;16.23;100.00
47985;BME280;33753;52.912;-7.342;2023-04-10T09:44:18;99078.19;;;15.59;100.00
47985;BME280;33753;52.912;-7.342;2023-04-10T09:46:56;99078.38;;;15.93;100.00
47985;BME280;33753;52.912;-7.342;2023-04-10T09:49:24;99062.41;;;15.85;100.00
47985;BME280;33753;52.912;-7.342;2023-04-10T09:51:52;99066.41;;;15.94;100.00
47985;BME280;33753;52.912;-7.342;2023-04-10T09:54:27;99074.22;;;16.02;100.00
47985;BME280;33753;52.912;-7.342;2023-04-10T09:57:02;99062.44;;;15.37;100.00
47985;BME280;33753;52.912;-7.342;2023-04-10T09:59:31;99061.94;;;14.93;100.00
47985;BME280;33753;52.912;-7.342;2023-04-10T10:02:01;99059.50;;;14.31;100.00
47985;BME280;33753;52.912;-7.342;2023-04-10T10:04:29;99052.44;;;13.93;100.00
47985;BME280;33753;52.912;-7.342;2023-04-10T10:06:58;99063.66;;;13.66;100.00
47985;BME280;33753;52.912;-7.342;2023-04-10T10:09:26;99067.44;;;13.65;100.00
47985;BME280;33753;52.912;-7.342;2023-04-10T10:11:55;99071.50;;;13.30;100.00
47985;BME280;33753;52.912;-7.342;2023-04-10T10:14:24;99071.03;;;13.15;100.00
47985;BME280;33753;52.912;-7.342;2023-04-10T10:16:55;99068.84;;;12.99;100.00
47985;BME280;33753;52.912;-7.342;2023-04-10T10:19:29;99057.84;;;12.93;100.00
47985;BME280;33753;52.912;-7.342;2023-04-10T10:21:58;99062.50;;;12.86;100.00
47985;BME280;33753;52.912;-7.342;2023-04-10T10:24:28;99070.47;;;12.81;100.00
47985;BME280;33753;52.912;-7.342;2023-04-10T10:26:58;99062.78;;;12.78;100.00
47985;BME280;33753;52.912;-7.342;2023-04-10T10:29:28;99061.28;;;12.50;100.00
47985;BME280;33753;52.912;-7.342;2023-04-10T10:31:58;99059.63;;;12.49;100.00
47985;BME280;33753;52.912;-7.342;2023-04-10T10:34:30;99060.56;;;12.36;100.00
47985;BME280;33753;52.912;-7.342;2023-04-10T10:36:59;99084.78;;;12.24;100.00
47985;BME280;33753;52.912;-7.342;2023-04-10T10:39:29;99086.97;;;12.09;100.00
47985;BME280;33753;52.912;-7.342;2023-04-10T10:42:01;99088.09;;;11.74;100.00
47985;BME280;33753;52.912;-7.342;2023-04-10T10:44:36;99100.47;;;11.37;100.00
47985;BME280;33753;52.912;-7.342;2023-04-10T10:47:09;99100.91;;;11.07;100.00
47985;BME280;33753;52.912;-7.342;2023-04-10T10:49:52;99102.13;;;10.71;100.00
47985;BME280;33753;52.912;-7.342;2023-04-10T10:52:40;99110.88;;;10.73;100.00
47985;BME280;33753;52.912;-7.342;2023-04-10T10:55:27;99127.72;;;10.62;100.00
47985;BME280;33753;52.912;-7.342;2023-04-10T10:57:57;99127.91;;;10.60;100.00
47985;BME280;33753;52.912;-7.342;2023-04-10T11:03:28;99134.47;;;10.31;100.00
47985;BME280;33753;52.912;-7.342;2023-04-10T11:05:58;99126.59;;;9.94;100.00
47985;BME280;33753;52.912;-7.342;2023-04-10T11:08:37;99126.22;;;9.97;100.00
47985;BME280;33753;52.912;-7.342;2023-04-10T11:11:13;99131.31;;;9.79;100.00
47985;BME280;33753;52.912;-7.342;2023-04-10T11:16:40;99141.94;;;9.87;100.00
47985;BME280;33753;52.912;-7.342;2023-04-10T11:19:09;99137.19;;;9.89;100.00
47985;BME280;33753;52.912;-7.342;2023-04-10T11:22:03;99145.22;;;10.17;100.00
47985;BME280;33753;52.912;-7.342;2023-04-10T11:24:52;99147.47;;;10.62;100.00
47985;BME280;33753;52.912;-7.342;2023-04-10T11:30:25;99153.09;;;11.81;100.00
47985;BME280;33753;52.912;-7.342;2023-04-10T11:32:54;99174.75;;;12.08;100.00
47985;BME280;33753;52.912;-7.342;2023-04-10T11:35:22;99197.50;;;11.60;100.00
47985;BME280;33753;52.912;-7.342;2023-04-10T11:37:52;99184.59;;;11.02;100.00
47985;BME280;33753;52.912;-7.342;2023-04-10T11:40:34;99176.19;;;10.70;100.00
47985;BME280;33753;52.912;-7.342;2023-04-10T11:43:12;99180.88;;;10.41;100.00
47985;BME280;33753;52.912;-7.342;2023-04-10T11:45:40;99177.56;;;10.04;100.00
47985;BME280;33753;52.912;-7.342;2023-04-10T11:48:09;99169.25;;;9.99;100.00
47985;BME280;33753;52.912;-7.342;2023-04-10T11:50:37;99158.16;;;9.87;100.00
47985;BME280;33753;52.912;-7.342;2023-04-10T11:53:17;99174.84;;;9.97;100.00
47985;BME280;33753;52.912;-7.342;2023-04-10T11:55:45;99189.81;;;10.35;100.00
47985;BME280;33753;52.912;-7.342;2023-04-10T11:58:20;99203.72;;;10.94;100.00
47985;BME280;33753;52.912;-7.342;2023-04-10T12:00:56;99204.81;;;11.66;100.00
47985;BME280;33753;52.912;-7.342;2023-04-10T12:03:32;99199.50;;;12.25;100.00
47985;BME280;33753;52.912;-7.342;2023-04-10T12:06:01;99211.31;;;12.89;100.00
47985;BME280;33753;52.912;-7.342;2023-04-10T12:08:30;99195.22;;;13.26;100.00
47985;BME280;33753;52.912;-7.342;2023-04-10T12:10:59;99198.22;;;13.69;100.00
47985;BME280;33753;52.912;-7.342;2023-04-10T12:13:28;99207.56;;;13.98;100.00
47985;BME280;33753;52.912;-7.342;2023-04-10T12:15:57;99176.06;;;14.27;100.00
47985;BME280;33753;52.912;-7.342;2023-04-10T12:18:26;99181.34;;;14.59;100.00
47985;BME280;33753;52.912;-7.342;2023-04-10T12:20:54;99177.25;;;14.68;100.00
47985;BME280;33753;52.912;-7.342;2023-04-10T12:23:23;99164.56;;;14.62;100.00
47985;BME280;33753;52.912;-7.342;2023-04-10T12:26:05;99148.50;;;14.05;100.00
47985;BME280;33753;52.912;-7.342;2023-04-10T12:28:34;99147.25;;;14.08;100.00
47985;BME280;33753;52.912;-7.342;2023-04-10T12:31:02;99166.03;;;14.28;100.00
47985;BME280;33753;52.912;-7.342;2023-04-10T12:33:31;99152.34;;;14.34;100.00
47985;BME280;33753;52.912;-7.342;2023-04-10T12:36:00;99139.38;;;14.18;100.00
47985;BME280;33753;52.912;-7.342;2023-04-10T12:38:35;99147.53;;;14.18;100.00
47985;BME280;33753;52.912;-7.342;2023-04-10T12:41:06;99141.81;;;14.08;100.00
47985;BME280;33753;52.912;-7.342;2023-04-10T12:43:35;99141.78;;;13.89;100.00
47985;BME280;33753;52.912;-7.342;2023-04-10T12:46:04;99142.63;;;13.46;100.00
47985;BME280;33753;52.912;-7.342;2023-04-10T12:48:32;99144.19;;;13.35;100.00
47985;BME280;33753;52.912;-7.342;2023-04-10T12:51:01;99150.03;;;13.07;100.00
47985;BME280;33753;52.912;-7.342;2023-04-10T12:53:29;99147.41;;;12.93;100.00
47985;BME280;33753;52.912;-7.342;2023-04-10T12:55:59;99184.75;;;12.66;100.00
47985;BME280;33753;52.912;-7.342;2023-04-10T12:58:29;99240.00;;;11.53;100.00
47985;BME280;33753;52.912;-7.342;2023-04-10T13:01:01;99220.53;;;10.69;100.00
47985;BME280;33753;52.912;-7.342;2023-04-10T13:03:29;99232.78;;;10.23;100.00
47985;BME280;33753;52.912;-7.342;2023-04-10T13:05:58;99245.84;;;9.91;100.00
47985;BME280;33753;52.912;-7.342;2023-04-10T13:08:26;99248.34;;;9.64;100.00
47985;BME280;33753;52.912;-7.342;2023-04-10T13:10:57;99253.03;;;9.49;100.00
47985;BME280;33753;52.912;-7.342;2023-04-10T13:13:31;99246.72;;;9.70;100.00
47985;BME280;33753;52.912;-7.342;2023-04-10T13:16:00;99251.16;;;10.06;100.00
47985;BME280;33753;52.912;-7.342;2023-04-10T13:18:28;99262.66;;;10.50;100.00
47985;BME280;33753;52.912;-7.342;2023-04-10T13:20:56;99281.16;;;10.95;100.00
47985;BME280;33753;52.912;-7.342;2023-04-10T13:23:24;99298.53;;;11.40;100.00
47985;BME280;33753;52.912;-7.342;2023-04-10T13:25:52;99278.78;;;11.53;100.00